Time;durP1;ratioP1;P1;durP2;ratioP2;P2;SDS_P1;SDS_P2;PMS_P1;PMS_P2;Temp;Humidity;BMP_temperature;BMP_pressure;BME280_temperature;BME280_humidity;BME280_pressure;Samples;Min_cycle;Max_cycle;Signal;HPM_P1;HPM_P2
2023/07/09 00:03:11;;;;;;;5.40;2.43;;;;;;;21.30;77.28;100007.25;12240008;19;20007;-79
2023/07/09 00:07:26;;;;;;;5.25;3.15;;;;;;;21.29;77.62;100003.59;12220082;19;20788;-79
2023/07/09 00:11:28;;;;;;;5.97;2.55;;;;;;;21.27;77.23;100005.91;12244220;19;20022;-80
2023/07/09 00:15:30;;;;;;;5.22;2.70;;;;;;;21.25;77.08;100016.59;12243715;19;20442;-79
2023/07/09 00:19:31;;;;;;;5.95;2.60;;;;;;;21.23;77.41;100016.06;12217721;19;20018;-79
2023/07/09 00:23:33;;;;;;;6.10;2.95;;;;;;;21.20;77.68;100018.66;12239851;19;20006;-79
2023/07/09 00:27:35;;;;;;;4.88;2.67;;;;;;;21.17;77.02;100020.97;12240574;19;20013;-80
2023/07/09 00:31:40;;;;;;;4.40;2.58;;;;;;;21.15;76.57;100019.63;12221502;19;20345;-80
2023/07/09 00:35:48;;;;;;;5.32;2.70;;;;;;;21.13;77.12;100021.91;12244344;19;20011;-80
2023/07/09 00:39:50;;;;;;;8.88;2.72;;;;;;;;;;12242078;19;20011;-79
2023/07/09 00:43:52;;;;;;;6.28;3.13;;;;;;;21.12;77.47;100023.06;12202754;19;20013;-79
2023/07/09 00:47:58;;;;;;;6.90;3.10;;;;;;;21.10;77.21;100016.94;12224775;19;20530;-80
2023/07/09 00:52:13;;;;;;;5.85;2.97;;;;;;;21.08;77.87;100028.44;12216106;19;20443;-79
2023/07/09 00:56:32;;;;;;;6.38;2.63;;;;;;;21.05;78.16;100029.09;12238701;19;20018;-80
2023/07/09 01:00:46;;;;;;;5.13;2.88;;;;;;;21.03;79.40;100036.13;12235552;19;20011;-80
2023/07/09 01:04:49;;;;;;;8.50;3.80;;;;;;;20.99;79.87;100037.91;12213338;19;20499;-79
2023/07/09 01:08:53;;;;;;;6.10;2.70;;;;;;;20.96;80.49;100044.16;12235164;19;20087;-80
2023/07/09 01:12:55;;;;;;;6.10;3.30;;;;;;;20.92;81.18;100041.97;12242807;19;20471;-80
2023/07/09 01:17:01;;;;;;;5.70;3.22;;;;;;;20.90;80.97;100041.44;12218680;19;20898;-80
2023/07/09 01:21:13;;;;;;;7.40;3.28;;;;;;;20.90;80.88;100047.06;12236292;19;20078;-79
2023/07/09 01:25:16;;;;;;;6.82;3.30;;;;;;;20.88;81.46;100049.38;12211829;19;20657;-80
2023/07/09 01:29:18;;;;;;;6.85;2.75;;;;;;;20.85;82.12;100047.19;12233022;19;20526;-80
2023/07/09 01:33:22;;;;;;;4.97;3.05;;;;;;;20.83;83.33;100043.84;12237135;19;20006;-80
2023/07/09 01:37:27;;;;;;;7.80;3.40;;;;;;;20.84;83.42;100053.09;12217787;19;20049;-80
2023/07/09 01:41:30;;;;;;;7.15;3.42;;;;;;;20.83;83.55;100057.03;12235896;19;20007;-80
2023/07/09 01:45:33;;;;;;;6.93;3.45;;;;;;;20.82;83.77;100059.00;12236323;19;20100;-80
2023/07/09 01:49:34;;;;;;;7.75;3.67;;;;;;;20.80;84.03;100052.88;12211392;19;20011;-79
2023/07/09 01:53:39;;;;;;;9.20;3.90;;;;;;;20.79;83.96;100054.03;12231959;19;20468;-80
2023/07/09 01:57:43;;;;;;;6.47;3.67;;;;;;;20.80;83.84;100061.28;12224798;19;20006;-80
2023/07/09 02:01:45;;;;;;;;;;;;;;;20.78;83.29;100057.13;12202954;19;20341;-80
2023/07/09 02:05:46;;;;;;;7.20;3.67;;;;;;;20.78;83.29;100054.34;12221581;19;20017;-80
2023/07/09 02:09:49;;;;;;;6.35;3.60;;;;;;;20.75;83.94;100052.97;12224208;19;20410;-78
2023/07/09 02:13:51;;;;;;;7.50;3.38;;;;;;;20.73;84.28;100055.25;12205830;19;20010;-79
2023/07/09 02:17:53;;;;;;;7.03;3.33;;;;;;;20.72;84.73;100056.41;12223697;19;20014;-78
2023/07/09 02:21:56;;;;;;;7.28;3.83;;;;;;;20.70;85.88;100055.88;12222406;19;20479;-80
2023/07/09 02:25:57;;;;;;;7.40;4.40;;;;;;;20.67;86.65;100054.56;12195072;19;20021;-79
2023/07/09 02:30:00;;;;;;;8.87;3.90;;;;;;;20.65;87.68;100053.22;12216881;19;20007;-80
2023/07/09 02:34:03;;;;;;;7.90;4.15;;;;;;;20.62;88.75;100059.44;12210084;19;20026;-80
2023/07/09 02:38:18;;;;;;;;;;;;;;;20.57;89.21;100048.31;12239481;19;20021;-79
2023/07/09 02:42:28;;;;;;;8.82;3.90;;;;;;;20.55;89.29;100056.19;12223085;19;20945;-80
2023/07/09 02:52:33;;;;;;;5.60;3.47;;;;;;;20.49;92.71;100061.03;12220731;19;20021;-79
2023/07/09 03:02:19;;;;;;;7.25;3.83;;;;;;;20.46;93.66;100061.66;12208039;19;20015;-79
2023/07/09 03:07:05;;;;;;;8.02;4.00;;;;;;;20.42;95.23;100067.03;12220948;19;20018;-79
2023/07/09 03:11:26;;;;;;;8.85;3.97;;;;;;;20.40;96.03;100077.72;12211395;19;20592;-79
2023/07/09 03:16:23;;;;;;;9.05;4.30;;;;;;;20.37;97.07;100075.53;12231365;19;20006;-79
2023/07/09 03:20:41;;;;;;;7.25;3.95;;;;;;;20.34;97.54;100081.75;12120126;19;2004411;-79
2023/07/09 03:24:46;;;;;;;10.82;4.55;;;;;;;20.33;98.29;100079.28;12224447;19;20014;-78
2023/07/09 03:28:52;;;;;;;8.98;4.20;;;;;;;20.31;98.87;100079.56;12201764;19;20066;-80
2023/07/09 03:32:54;;;;;;;8.88;3.95;;;;;;;20.28;99.21;100077.38;12231982;19;20026;-80
2023/07/09 03:37:01;;;;;;;8.32;4.35;;;;;;;20.26;99.11;100085.28;12230306;19;20035;-79
2023/07/09 03:41:33;;;;;;;;;;;;;;;;;;;;;
2023/07/09 03:46:13;;;;;;;6.50;3.92;;;;;;;20.21;99.95;100097.38;12220417;19;20071;-79
2023/07/09 03:50:25;;;;;;;7.32;4.13;;;;;;;20.21;99.43;100102.16;12197663;19;20021;-79
2023/07/09 04:00:34;;;;;;;9.40;4.05;;;;;;;20.19;98.43;100113.63;12215133;19;20041;-79
2023/07/09 04:05:27;;;;;;;7.43;3.10;;;;;;;20.21;98.69;100114.16;12198830;19;20031;-79
2023/07/09 04:16:08;;;;;;;7.32;4.10;;;;;;;20.21;99.08;100105.78;12130097;19;2004366;-79
2023/07/09 04:20:18;;;;;;;7.88;3.58;;;;;;;20.21;98.75;100121.75;12189691;19;20022;-79
2023/07/09 04:24:27;;;;;;;13.27;4.57;;;;;;;20.22;98.76;100115.00;12214271;19;20006;-79
2023/07/09 04:28:30;;;;;;;9.13;3.88;;;;;;;20.24;99.07;100116.34;12195622;19;19998;-79
2023/07/09 04:32:36;;;;;;;10.23;3.67;;;;;;;20.24;99.70;100109.94;12224345;19;20051;-79
2023/07/09 04:36:41;;;;;;;6.68;3.08;;;;;;;20.29;99.96;100115.44;12221684;19;20013;-79
2023/07/09 04:46:37;;;;;;;;;;;;;;;;;;;;;
2023/07/09 04:51:51;;;;;;;9.95;4.25;;;;;;;20.39;100.00;100112.44;12244911;19;20023;-79
2023/07/09 05:01:36;;;;;;;6.15;3.60;;;;;;;20.47;100.00;100106.16;12198480;19;20488;-79
2023/07/09 05:06:06;;;;;;;11.05;3.92;;;;;;;20.55;100.00;100112.19;12221321;19;20039;-79
2023/07/09 05:16:09;;;;;;;8.63;3.42;;;;;;;20.67;100.00;100120.91;12196595;19;20006;-79
2023/07/09 05:31:00;;;;;;;9.13;4.30;;;;;;;20.92;98.16;100122.38;12217378;19;20116;-79
2023/07/09 05:35:27;;;;;;;8.60;3.80;;;;;;;21.08;97.88;100128.50;12202453;19;20010;-78
2023/07/09 05:40:24;;;;;;;7.53;4.07;;;;;;;21.21;97.30;100122.06;12193934;19;20006;-79
2023/07/09 05:44:38;;;;;;;9.43;4.43;;;;;;;21.35;96.39;100125.66;12220280;19;20007;-79
2023/07/09 05:49:18;;;;;;;6.55;3.63;;;;;;;21.52;95.84;100118.59;12222085;19;20006;-80
2023/07/09 05:53:39;;;;;;;10.00;4.43;;;;;;;21.66;95.33;100119.41;12207586;19;20091;-80
2023/07/09 05:59:00;;;;;;;10.27;4.25;;;;;;;21.83;95.44;100122.34;12215948;19;20003;-79
2023/07/09 06:04:03;;;;;;;7.25;4.22;;;;;;;22.02;94.23;100130.56;11911681;19;2004718;-78
2023/07/09 06:08:50;;;;;;;9.57;4.40;;;;;;;22.23;92.69;100136.53;12191746;19;20035;-79
2023/07/09 06:18:44;;;;;;;11.50;4.78;;;;;;;22.63;89.73;100133.78;12213264;19;20024;-79
2023/07/09 06:22:46;;;;;;;6.78;4.45;;;;;;;22.81;88.44;100140.31;12217092;19;20090;-79
2023/07/09 06:26:48;;;;;;;9.07;4.15;;;;;;;22.99;87.15;100141.22;12219748;19;20098;-79
2023/07/09 06:36:01;;;;;;;10.00;4.47;;;;;;;23.38;83.09;100143.19;12231758;19;20025;-79
2023/07/09 06:40:12;;;;;;;9.15;4.50;;;;;;;23.59;81.16;100160.25;12204267;19;20022;-79
2023/07/09 06:44:46;;;;;;;;;;;;;;;;;;;;;
2023/07/09 06:49:22;;;;;;;7.10;4.25;;;;;;;24.04;78.32;100151.53;12200422;19;20010;-79
2023/07/09 06:53:51;;;;;;;11.82;4.85;;;;;;;24.28;76.55;100155.81;12234483;19;20006;-79
2023/07/09 06:57:53;;;;;;;7.78;4.75;;;;;;;24.51;75.29;100153.63;12231411;19;20130;-79
2023/07/09 07:02:14;;;;;;;9.40;4.80;;;;;;;24.75;73.75;100155.91;12205955;19;20056;-79
2023/07/09 07:06:18;;;;;;;10.10;5.13;;;;;;;25.02;73.07;100158.28;12227638;19;20003;-81
2023/07/09 07:10:30;;;;;;;7.80;4.82;;;;;;;25.29;72.01;100156.19;12214137;19;20010;-80
2023/07/09 07:19:38;;;;;;;8.02;4.53;;;;;;;25.90;68.55;100150.16;12204327;19;20013;-80
2023/07/09 07:23:40;;;;;;;10.30;4.93;;;;;;;26.13;68.11;100142.16;12232928;19;20058;-81
2023/07/09 07:27:42;;;;;;;8.13;4.97;;;;;;;26.36;66.04;100143.41;12222089;19;20011;-81
2023/07/09 07:31:44;;;;;;;9.82;5.40;;;;;;;26.60;65.00;100136.22;12199024;19;20325;-81
2023/07/09 07:35:46;;;;;;;8.52;5.60;;;;;;;26.91;62.69;100137.66;12226034;19;20023;-81
2023/07/09 07:40:09;;;;;;;8.82;5.65;;;;;;;27.10;61.16;100137.06;12204623;19;20007;-81
2023/07/09 07:44:11;;;;;;;9.05;4.75;;;;;;;27.35;59.82;100140.75;12227219;19;20011;-81
2023/07/09 07:48:13;;;;;;;8.27;4.68;;;;;;;27.68;57.91;100138.56;12222898;19;20370;-81
2023/07/09 07:52:15;;;;;;;;;;;;;;;27.95;57.89;100137.00;12212049;19;20434;-81
2023/07/09 07:56:17;;;;;;;12.80;4.63;;;;;;;28.28;55.54;100140.75;12228803;19;19922;-81
2023/07/09 08:00:19;;;;;;;8.98;4.90;;;;;;;28.56;55.00;100138.78;12223944;19;20023;-80
2023/07/09 08:04:21;;;;;;;9.55;4.93;;;;;;;28.81;53.10;100130.09;12200652;19;20022;-81
2023/07/09 08:08:23;;;;;;;9.02;4.40;;;;;;;29.02;51.58;100127.00;12205946;19;20010;-81
2023/07/09 08:12:25;;;;;;;7.40;5.03;;;;;;;29.24;51.78;100117.00;12189931;19;20015;-81
2023/07/09 08:16:27;;;;;;;9.63;4.60;;;;;;;29.49;50.58;100134.63;12208501;19;20029;-81
2023/07/09 08:20:29;;;;;;;;;;;;;;;29.76;50.81;100130.00;12229570;19;20475;-81
2023/07/09 08:24:32;;;;;;;8.80;5.20;;;;;;;30.02;49.68;100131.38;12230535;19;19922;-81
2023/07/09 08:32:57;;;;;;;8.40;4.78;;;;;;;30.21;49.33;100122.84;12210845;19;20455;-80
2023/07/09 08:37:14;;;;;;;9.05;4.53;;;;;;;30.54;48.74;100110.09;12255906;19;20026;-80
2023/07/09 08:42:09;;;;;;;8.52;5.35;;;;;;;30.85;47.17;100104.19;12194654;19;20048;-80
2023/07/09 08:51:21;;;;;;;10.10;5.65;;;;;;;31.24;46.40;100115.41;12223456;19;20010;-81
2023/07/09 08:56:19;;;;;;;8.40;4.80;;;;;;;31.51;45.67;100112.56;12222643;19;20350;-81
2023/07/09 09:01:02;;;;;;;;;;;;;;;;;;;;;
2023/07/09 09:05:20;;;;;;;10.05;5.03;;;;;;;31.84;44.89;100113.84;12216533;19;20030;-81
2023/07/09 09:10:02;;;;;;;9.57;5.00;;;;;;;32.07;44.53;100111.72;12219127;19;20387;-80
2023/07/09 09:14:38;;;;;;;8.85;4.90;;;;;;;32.39;42.87;100111.25;12176552;19;20030;-82
2023/07/09 09:23:59;;;;;;;11.23;5.38;;;;;;;32.82;41.59;100106.03;12113251;19;2004448;-80
2023/07/09 09:28:04;;;;;;;8.17;5.10;;;;;;;33.12;40.68;100106.72;12224742;19;20374;-81
2023/07/09 09:32:52;;;;;;;10.40;5.03;;;;;;;33.39;40.00;100109.34;12207202;19;20010;-81
2023/07/09 09:37:12;;;;;;;12.35;5.22;;;;;;;33.65;38.81;100098.94;12216180;19;20026;-81
2023/07/09 09:41:25;;;;;;;12.00;5.72;;;;;;;33.81;38.31;100094.50;12206216;19;20035;-81
2023/07/09 09:45:41;;;;;;;9.77;5.38;;;;;;;34.01;38.49;100102.78;12264495;19;20019;-81
2023/07/09 09:50:26;;;;;;;8.07;4.97;;;;;;;34.07;36.44;100101.19;12190951;19;20478;-81
2023/07/09 09:54:35;;;;;;;9.80;5.65;;;;;;;34.26;35.86;100111.47;12214463;19;20006;-81
2023/07/09 09:58:40;;;;;;;10.38;5.55;;;;;;;34.54;36.46;100110.75;12218421;19;20014;-81
2023/07/09 10:02:45;;;;;;;8.57;4.32;;;;;;;34.78;35.16;100112.00;12216309;19;20006;-80
2023/07/09 10:06:55;;;;;;;9.93;5.20;;;;;;;35.11;34.15;100104.28;12217824;19;20062;-81
2023/07/09 10:11:11;;;;;;;8.27;4.97;;;;;;;35.34;33.01;100106.72;12191155;19;20027;-81
2023/07/09 10:15:28;;;;;;;9.15;5.47;;;;;;;35.36;32.30;100078.44;12214050;19;20007;-82
2023/07/09 10:19:42;;;;;;;12.35;5.03;;;;;;;35.12;32.70;100075.22;12193826;19;20014;-81
2023/07/09 10:24:08;;;;;;;8.32;4.90;;;;;;;35.29;33.03;100079.28;12211883;19;20007;-81
2023/07/09 10:28:28;;;;;;;7.20;4.45;;;;;;;35.65;30.86;100064.88;12202682;19;20439;-81
2023/07/09 10:32:38;;;;;;;7.85;4.53;;;;;;;35.84;30.35;100063.56;12229618;19;20476;-81
2023/07/09 10:36:46;;;;;;;6.33;4.10;;;;;;;36.03;29.75;100056.53;12223065;19;20011;-80
2023/07/09 10:40:54;;;;;;;7.65;4.80;;;;;;;36.14;29.54;100059.38;12191867;19;20002;-81
2023/07/09 10:45:01;;;;;;;12.55;4.72;;;;;;;36.20;28.93;100060.56;12215363;19;20392;-81
2023/07/09 10:49:06;;;;;;;8.13;4.57;;;;;;;36.31;29.16;100058.44;12213927;19;20010;-81
2023/07/09 10:53:31;;;;;;;8.27;4.68;;;;;;;36.37;29.54;100048.16;12193620;19;20503;-81
2023/07/09 10:57:48;;;;;;;9.48;4.75;;;;;;;36.60;28.95;100041.88;12232565;19;20010;-81
2023/07/09 11:02:00;;;;;;;9.20;5.35;;;;;;;36.75;29.54;100033.16;12206926;19;20013;-81
2023/07/09 11:06:03;;;;;;;6.82;4.80;;;;;;;36.99;27.41;100029.22;12224076;19;20011;-80
2023/07/09 11:10:22;;;;;;;8.50;4.63;;;;;;;37.30;28.04;100038.81;12218575;19;20014;-81
2023/07/09 11:14:50;;;;;;;9.55;4.43;;;;;;;37.61;26.13;100025.31;12242407;19;20018;-82
2023/07/09 11:18:58;;;;;;;8.57;4.55;;;;;;;37.66;25.86;100026.06;12232535;19;20015;-82
2023/07/09 11:23:16;;;;;;;7.65;4.40;;;;;;;37.64;26.46;100026.50;12213184;19;20035;-82
2023/07/09 11:27:26;;;;;;;6.95;4.38;;;;;;;37.74;26.19;100010.38;12225760;19;20007;-82
2023/07/09 11:31:40;;;;;;;8.88;4.60;;;;;;;37.86;25.97;100013.47;12213168;19;20772;-81
2023/07/09 11:35:51;;;;;;;7.25;4.43;;;;;;;38.17;25.37;100009.81;12240823;19;20075;-82
2023/07/09 11:39:53;;;;;;;;;;;;;;;38.16;24.82;99996.66;12232613;19;20467;-82
2023/07/09 11:44:21;;;;;;;7.95;4.45;;;;;;;37.99;25.63;99989.94;12209272;19;19915;-82
2023/07/09 11:48:26;;;;;;;6.75;4.50;;;;;;;38.24;25.02;99993.22;12234703;19;20010;-82
2023/07/09 11:52:34;;;;;;;7.72;4.68;;;;;;;38.56;24.64;99991.13;12214091;19;20014;-81
2023/07/09 11:56:35;;;;;;;7.88;4.65;;;;;;;38.78;24.20;99980.84;12239385;19;20014;-81
2023/07/09 12:00:40;;;;;;;8.48;4.63;;;;;;;38.94;24.37;99986.75;12227522;19;20007;-81
2023/07/09 12:04:42;;;;;;;8.65;4.65;;;;;;;39.06;24.48;99982.41;12206478;19;20041;-80
2023/07/09 12:08:46;;;;;;;6.90;4.57;;;;;;;38.98;24.96;99983.81;12229272;19;20518;-80
2023/07/09 12:12:53;;;;;;;6.90;4.47;;;;;;;38.93;24.57;99975.66;12225540;19;20373;-81
2023/07/09 12:16:57;;;;;;;6.60;4.80;;;;;;;39.10;24.20;99962.19;12203252;19;20010;-79
2023/07/09 12:20:59;;;;;;;6.40;4.53;;;;;;;39.59;23.82;99965.28;12223705;19;20012;-81
2023/07/09 12:25:00;;;;;;;8.55;5.05;;;;;;;40.43;23.07;99965.88;12221337;19;20013;-80
2023/07/09 12:29:02;;;;;;;9.27;5.28;;;;;;;41.35;22.14;99951.03;12194991;19;20090;-80
2023/07/09 12:33:07;;;;;;;8.15;4.95;;;;;;;42.09;21.41;99946.28;12222160;19;20015;-81
2023/07/09 12:37:15;;;;;;;7.85;4.53;;;;;;;42.56;20.31;99939.78;12221086;19;20018;-83
2023/07/09 12:41:37;;;;;;;7.75;5.20;;;;;;;43.21;19.59;99932.53;12220153;19;20010;-81
2023/07/09 12:45:39;;;;;;;7.80;4.45;;;;;;;43.85;18.90;99921.34;12221752;19;20026;-81
2023/07/09 12:49:44;;;;;;;8.40;5.40;;;;;;;44.22;19.15;99915.69;12198267;19;20010;-81
2023/07/09 12:53:46;;;;;;;6.95;4.63;;;;;;;44.94;18.08;99915.50;12216940;19;20415;-82
2023/07/09 12:57:48;;;;;;;5.50;4.70;;;;;;;45.55;17.72;99904.81;12223127;19;20006;-81
2023/07/09 13:02:17;;;;;;;7.93;5.82;;;;;;;45.67;17.28;99889.25;12197847;19;20012;-82
2023/07/09 13:06:34;;;;;;;7.10;4.60;;;;;;;45.49;18.15;99892.19;12217331;19;20067;-81
2023/07/09 13:10:42;;;;;;;10.00;4.72;;;;;;;46.04;17.22;99879.53;12204802;19;20014;-82
2023/07/09 13:14:52;;;;;;;8.63;4.70;;;;;;;46.74;16.38;99879.28;12225518;19;20468;-81
2023/07/09 13:18:54;;;;;;;7.65;4.57;;;;;;;47.34;16.31;99868.53;12225089;19;20006;-80
2023/07/09 13:22:57;;;;;;;6.80;4.50;;;;;;;47.87;15.91;99858.84;12199648;19;20007;-82
2023/07/09 13:27:01;;;;;;;8.57;5.22;;;;;;;48.38;15.58;99861.19;12216739;19;20022;-82
2023/07/09 13:31:17;;;;;;;7.95;5.10;;;;;;;48.62;15.20;99847.69;12207101;19;20014;-81
2023/07/09 13:35:19;;;;;;;8.38;5.22;;;;;;;48.53;15.25;99851.56;12219536;19;20386;-80
2023/07/09 13:39:22;;;;;;;5.70;3.75;;;;;;;48.38;14.74;99852.41;12220732;19;20018;-80
2023/07/09 13:43:32;;;;;;;7.50;4.38;;;;;;;48.41;15.16;99856.44;12197745;19;20382;-80
2023/07/09 13:47:34;;;;;;;6.32;4.13;;;;;;;48.44;15.25;99848.78;12215930;19;20036;-81
2023/07/09 13:51:44;;;;;;;10.63;4.38;;;;;;;48.97;14.36;99839.59;12219528;19;20034;-80
2023/07/09 13:55:46;;;;;;;5.60;3.97;;;;;;;48.79;14.03;99854.53;12197773;19;20067;-78
2023/07/09 13:59:48;;;;;;;7.43;4.30;;;;;;;49.03;13.92;99842.59;12216352;19;20350;-79
2023/07/09 14:04:00;;;;;;;6.30;4.68;;;;;;;49.16;14.04;99845.91;12214971;19;20007;-80
2023/07/09 14:08:02;;;;;;;6.43;4.30;;;;;;;49.09;13.81;99846.38;12197478;19;20010;-80
2023/07/09 14:12:08;;;;;;;9.02;4.60;;;;;;;48.46;13.73;99835.25;12225626;19;20014;-80
2023/07/09 14:16:15;;;;;;;7.25;4.13;;;;;;;47.56;13.93;99841.84;12204525;19;20014;-80
2023/07/09 14:20:17;;;;;;;6.88;4.20;;;;;;;46.73;14.96;99845.59;12214760;19;20007;-80
2023/07/09 14:24:20;;;;;;;8.98;4.22;;;;;;;46.68;15.23;99834.66;12223495;19;20021;-80
2023/07/09 14:28:22;;;;;;;7.47;3.88;;;;;;;46.64;14.77;99828.16;12199158;19;20015;-80
2023/07/09 14:32:36;;;;;;;6.72;3.75;;;;;;;46.25;15.05;99828.13;12227907;19;20035;-80
2023/07/09 14:36:40;;;;;;;7.13;4.10;;;;;;;45.45;15.20;99828.31;12228146;19;20019;-78
2023/07/09 14:40:43;;;;;;;9.10;3.63;;;;;;;44.94;15.85;99828.28;12200969;19;20537;-79
2023/07/09 14:44:45;;;;;;;6.95;3.85;;;;;;;44.80;15.70;99830.56;12224281;19;20018;-79
2023/07/09 14:48:49;;;;;;;7.47;3.92;;;;;;;44.35;16.29;99835.06;12226073;19;20007;-79
2023/07/09 14:52:53;;;;;;;6.28;3.65;;;;;;;43.99;16.63;99823.34;12212619;19;20042;-80
2023/07/09 14:56:57;;;;;;;6.30;4.00;;;;;;;43.43;17.45;99828.91;12234387;19;20002;-79
2023/07/09 15:01:02;;;;;;;7.57;3.90;;;;;;;43.34;17.20;99817.22;12232454;19;20007;-80
2023/07/09 15:05:12;;;;;;;7.82;3.95;;;;;;;43.17;17.02;99799.28;12208665;19;20545;-80
2023/07/09 15:09:14;;;;;;;7.57;4.05;;;;;;;42.71;17.39;99812.59;12230800;19;20006;-80
2023/07/09 15:13:25;;;;;;;6.75;4.22;;;;;;;42.96;17.51;99806.69;12213245;19;20007;-80
2023/07/09 15:17:27;;;;;;;9.35;4.22;;;;;;;43.49;17.05;99800.06;12232587;19;20002;-80
2023/07/09 15:21:30;;;;;;;7.70;4.57;;;;;;;44.02;16.66;99799.16;12236408;19;20076;-80
2023/07/09 15:25:32;;;;;;;6.38;4.30;;;;;;;43.87;16.12;99799.72;12210007;19;20023;-80
2023/07/09 15:29:34;;;;;;;7.43;4.10;;;;;;;42.92;16.89;99797.31;12229331;19;20054;-81
2023/07/09 15:33:36;;;;;;;8.45;3.85;;;;;;;41.96;17.48;99795.00;12235441;19;20010;-81
2023/07/09 15:37:38;;;;;;;7.15;4.20;;;;;;;41.10;17.69;99795.66;12213992;19;20740;-80
2023/07/09 15:41:40;;;;;;;8.25;4.50;;;;;;;40.44;17.93;99802.91;12242901;19;20014;-80
2023/07/09 15:45:45;;;;;;;7.50;4.32;;;;;;;39.92;18.95;99809.63;12236817;19;20020;-79
2023/07/09 15:49:47;;;;;;;6.10;3.83;;;;;;;39.36;19.07;99814.25;12210057;19;20533;-80
2023/07/09 15:53:48;;;;;;;7.10;3.90;;;;;;;39.06;19.57;99808.72;12237195;19;20006;-80
2023/07/09 15:57:52;;;;;;;6.78;4.07;;;;;;;38.85;19.74;99818.63;12240633;19;20022;-80
2023/07/09 16:01:55;;;;;;;8.32;3.75;;;;;;;38.55;20.20;99808.09;12217330;19;20010;-80
2023/07/09 16:05:57;;;;;;;5.88;3.80;;;;;;;38.27;19.77;99813.94;12233154;19;20007;-80
2023/07/09 16:09:58;;;;;;;6.50;3.60;;;;;;;38.04;20.68;99817.63;12240478;19;20006;-80
2023/07/09 16:14:00;;;;;;;6.03;3.88;;;;;;;37.93;20.83;99810.41;12215761;19;20045;-79
2023/07/09 16:18:08;;;;;;;7.15;4.03;;;;;;;37.87;21.10;99807.25;12234144;19;20460;-80
2023/07/09 16:22:13;;;;;;;7.35;3.95;;;;;;;37.94;20.98;99795.63;12210873;19;19998;-80
2023/07/09 16:26:15;;;;;;;5.68;3.83;;;;;;;37.94;20.95;99795.63;12228790;19;20038;-79
2023/07/09 16:30:22;;;;;;;8.60;3.88;;;;;;;37.75;21.05;99805.78;12224872;19;20015;-79
2023/07/09 16:34:26;;;;;;;7.40;4.03;;;;;;;37.56;21.83;99809.38;12211019;19;20339;-79
2023/07/09 16:38:27;;;;;;;7.93;4.10;;;;;;;37.55;21.51;99799.13;12227822;19;20018;-80
2023/07/09 16:42:30;;;;;;;12.45;4.07;;;;;;;37.69;21.39;99798.91;12229924;19;20023;-80
2023/07/09 16:46:32;;;;;;;8.50;3.75;;;;;;;37.60;21.34;99796.59;12203990;19;20006;-80
2023/07/09 16:50:34;;;;;;;7.22;3.95;;;;;;;37.42;21.84;99790.25;12227046;19;20034;-80
2023/07/09 16:54:35;;;;;;;7.28;3.72;;;;;;;37.19;21.94;99782.41;12230093;19;20027;-80
2023/07/09 16:58:37;;;;;;;6.82;4.25;;;;;;;37.08;21.77;99784.59;12208232;19;20365;-80
2023/07/09 17:02:39;;;;;;;6.47;3.70;;;;;;;36.95;22.62;99775.72;12231024;19;20514;-81
2023/07/09 17:06:42;;;;;;;7.20;4.22;;;;;;;36.81;22.67;99773.03;12229808;19;20018;-80
2023/07/09 17:10:45;;;;;;;11.73;4.88;;;;;;;36.55;23.65;99761.03;12203749;19;20006;-80
2023/07/09 17:14:47;;;;;;;7.35;4.00;;;;;;;36.37;23.88;99757.53;12228421;19;20010;-80
2023/07/09 17:18:49;;;;;;;10.10;4.65;;;;;;;36.02;24.26;99770.97;12225055;19;20476;-80
2023/07/09 17:22:53;;;;;;;8.20;4.72;;;;;;;35.61;25.18;99766.03;12210603;19;20507;-80
2023/07/09 17:26:57;;;;;;;8.95;4.43;;;;;;;35.19;26.11;99773.66;12229774;19;20021;-80
2023/07/09 17:30:59;;;;;;;9.70;3.97;;;;;;;34.90;26.50;99764.38;12230721;19;20062;-80
2023/07/09 17:35:01;;;;;;;7.60;4.20;;;;;;;34.66;26.61;99775.53;12209400;19;20010;-80
2023/07/09 17:39:03;;;;;;;8.52;4.82;;;;;;;34.53;27.42;99773.50;12228565;19;20011;-80
2023/07/09 17:43:13;;;;;;;7.35;3.72;;;;;;;34.41;27.95;99772.72;12226613;19;20011;-80
2023/07/09 17:47:17;;;;;;;10.63;4.45;;;;;;;34.23;27.84;99764.16;12206845;19;20067;-80
2023/07/09 17:51:20;;;;;;;10.88;3.90;;;;;;;34.07;28.07;99775.25;12229934;19;20006;-80
2023/07/09 17:55:23;;;;;;;11.10;4.55;;;;;;;33.86;28.63;99778.91;12214049;19;20003;-79
2023/07/09 17:59:30;;;;;;;8.43;4.72;;;;;;;33.67;29.28;99782.16;12220781;19;20088;-80
2023/07/09 18:03:33;;;;;;;8.10;3.80;;;;;;;33.41;29.73;99786.22;12223681;19;20249;-79
2023/07/09 18:07:35;;;;;;;9.35;4.65;;;;;;;33.22;30.42;99785.34;12201664;19;20011;-79
2023/07/09 18:11:39;;;;;;;;;;;;;;;33.01;30.21;99785.28;12227694;19;20010;-80
2023/07/09 18:15:42;;;;;;;7.43;4.10;;;;;;;32.84;30.46;99786.81;12231727;19;19911;-79
2023/07/09 18:19:44;;;;;;;9.13;4.13;;;;;;;32.65;31.06;99788.78;12204165;19;20070;-80
2023/07/09 18:23:46;;;;;;;;;;;;;;;32.44;31.14;99788.66;12237697;19;20006;-79
2023/07/09 18:27:55;;;;;;;11.20;4.50;;;;;;;32.30;31.84;99794.25;12237599;19;19932;-80
2023/07/09 18:31:59;;;;;;;7.78;3.92;;;;;;;32.08;32.28;99779.88;12214293;19;20025;-79
2023/07/09 18:36:01;;;;;;;9.55;4.53;;;;;;;31.85;33.40;99782.09;12236403;19;20108;-79
2023/07/09 18:40:03;;;;;;;;;;;;;;;31.59;33.33;99783.94;12239059;19;20014;-80
2023/07/09 18:44:31;;;;;;;9.52;4.20;;;;;;;31.37;34.20;99785.75;12214334;19;19931;-79
2023/07/09 18:48:36;;;;;;;7.65;4.25;;;;;;;31.14;35.19;99780.19;12233384;19;20129;-79
2023/07/09 18:52:38;;;;;;;7.47;4.07;;;;;;;30.92;35.42;99781.16;12217039;19;20010;-80
2023/07/09 18:56:40;;;;;;;9.95;4.30;;;;;;;30.74;35.63;99793.09;12242865;19;20037;-79
2023/07/09 19:00:43;;;;;;;13.27;5.57;;;;;;;30.54;36.33;99795.28;12236981;19;20367;-80
2023/07/09 19:04:46;;;;;;;8.25;4.07;;;;;;;30.28;36.88;99793.31;12212741;19;20013;-79
2023/07/09 19:08:48;;;;;;;7.95;4.53;;;;;;;29.98;38.26;99790.34;12235978;19;20041;-79
2023/07/09 19:12:52;;;;;;;8.20;4.25;;;;;;;29.68;38.99;99795.94;12237532;19;20578;-79
2023/07/09 19:16:58;;;;;;;10.82;4.72;;;;;;;29.42;40.35;99803.19;12213474;19;20500;-80
2023/07/09 19:21:00;;;;;;;11.82;4.50;;;;;;;29.19;41.61;99794.63;12248951;19;20022;-80
2023/07/09 19:25:19;;;;;;;11.43;3.95;;;;;;;28.96;42.14;99800.22;12241184;19;20060;-79
2023/07/09 19:29:23;;;;;;;14.38;5.15;;;;;;;28.73;42.66;99802.97;12218510;19;20010;-79
2023/07/09 19:33:33;;;;;;;10.82;4.88;;;;;;;28.52;43.81;99814.69;12233848;19;20014;-79
2023/07/09 19:37:37;;;;;;;11.63;4.60;;;;;;;28.30;44.48;99821.03;12226530;19;20014;-80
2023/07/09 19:41:39;;;;;;;9.68;4.68;;;;;;;28.09;45.12;99827.84;12249744;19;20007;-80
2023/07/09 19:45:49;;;;;;;11.15;4.78;;;;;;;27.93;45.29;99810.88;12249275;19;20347;-80
2023/07/09 19:49:57;;;;;;;9.68;4.60;;;;;;;27.82;45.29;99815.44;12224345;19;20013;-80
2023/07/09 19:53:59;;;;;;;9.20;4.57;;;;;;;27.79;45.23;99815.34;12248610;19;20030;-80
2023/07/09 19:58:02;;;;;;;9.55;4.63;;;;;;;27.72;45.20;99808.28;12242143;19;20427;-80
2023/07/09 20:02:18;;;;;;;;;;;;;;;27.57;45.92;99805.44;12226253;19;20043;-80
2023/07/09 20:06:20;;;;;;;16.10;4.72;;;;;;;27.48;46.56;99814.09;12246164;19;19915;-81
2023/07/09 20:10:22;;;;;;;12.25;4.45;;;;;;;27.43;47.62;99823.69;12220040;19;20369;-80
2023/07/09 20:14:24;;;;;;;8.80;4.45;;;;;;;27.39;48.05;99819.13;12243035;19;20007;-80
2023/07/09 20:18:26;;;;;;;8.82;4.80;;;;;;;27.36;48.42;99814.19;12238820;19;20026;-81
2023/07/09 20:22:29;;;;;;;10.23;4.20;;;;;;;27.29;48.32;99823.31;12216149;19;20007;-80
2023/07/09 20:26:32;;;;;;;10.77;4.25;;;;;;;27.22;48.83;99821.13;12237130;19;20039;-79
2023/07/09 20:30:35;;;;;;;10.48;4.47;;;;;;;27.14;49.24;99819.22;12242331;19;20021;-80
2023/07/09 20:34:37;;;;;;;10.27;4.03;;;;;;;27.09;49.49;99824.31;12220379;19;20049;-80
2023/07/09 20:38:39;;;;;;;11.50;4.28;;;;;;;26.99;50.19;99822.84;12240493;19;20431;-81
2023/07/09 20:42:41;;;;;;;8.98;4.50;;;;;;;26.91;50.34;99829.47;12243008;19;20325;-81
2023/07/09 20:46:43;;;;;;;;;;;;;;;26.77;50.35;99833.53;12222448;19;19998;-81